createdAt,value
2022-10-04T00:00:41.782Z,12.80
2022-10-04T00:03:10.661Z,12.90
2022-10-04T00:05:39.962Z,12.70
2022-10-04T00:08:33.779Z,12.70
2022-10-04T00:11:30.705Z,12.70
2022-10-04T00:13:59.381Z,12.60
2022-10-04T00:16:30.329Z,12.60
2022-10-04T00:19:03.759Z,12.60
2022-10-04T00:21:51.351Z,12.60
2022-10-04T00:24:31.944Z,12.60
2022-10-04T00:27:19.568Z,12.60
2022-10-04T00:30:10.322Z,12.60
2022-10-04T00:32:41.159Z,12.60
2022-10-04T00:35:24.761Z,12.70
2022-10-04T00:37:58.312Z,12.60
2022-10-04T00:40:31.707Z,12.70
2022-10-04T00:43:00.262Z,12.70
2022-10-04T00:45:41.224Z,12.70
2022-10-04T00:48:08.680Z,12.80
2022-10-04T00:50:38.677Z,12.80
2022-10-04T00:53:14.713Z,12.80
2022-10-04T00:55:47.616Z,12.80
2022-10-04T00:58:19.597Z,12.80
2022-10-04T01:00:48.286Z,12.70
2022-10-04T01:03:20.203Z,12.70
2022-10-04T01:05:53.801Z,12.60
2022-10-04T01:08:27.300Z,12.60
2022-10-04T01:10:56.602Z,12.60
2022-10-04T01:13:42.125Z,12.50
2022-10-04T01:16:29.269Z,12.60
2022-10-04T01:19:16.675Z,12.60
2022-10-04T01:21:47.098Z,13.20
2022-10-04T01:24:21.290Z,12.70
2022-10-04T01:26:48.820Z,12.60
2022-10-04T01:29:34.527Z,12.60
2022-10-04T01:32:01.986Z,12.60
2022-10-04T01:34:30.115Z,12.50
2022-10-04T01:37:01.092Z,12.50
2022-10-04T01:39:28.974Z,12.50
2022-10-04T01:41:56.719Z,12.50
2022-10-04T01:44:32.581Z,12.50
2022-10-04T01:47:02.896Z,12.50
2022-10-04T01:49:32.428Z,12.70
2022-10-04T01:52:20.042Z,12.80
2022-10-04T01:54:49.868Z,12.90
2022-10-04T01:57:19.069Z,13.00
2022-10-04T01:59:49.985Z,13.10
2022-10-04T02:02:29.110Z,13.10
2022-10-04T02:04:58.140Z,13.10
2022-10-04T02:07:29.200Z,13.20
2022-10-04T02:09:59.607Z,13.20
2022-10-04T02:12:28.459Z,13.20
2022-10-04T02:14:56.629Z,13.20
2022-10-04T02:17:27.707Z,13.30
2022-10-04T02:19:55.446Z,13.20
2022-10-04T02:22:23.680Z,13.30
2022-10-04T02:24:52.968Z,13.20
2022-10-04T02:27:20.422Z,13.20
2022-10-04T02:29:47.791Z,13.20
2022-10-04T02:32:33.847Z,13.20
2022-10-04T02:35:01.260Z,13.20
2022-10-04T02:37:28.707Z,13.20
2022-10-04T02:39:58.674Z,13.20
2022-10-04T02:42:36.817Z,13.20
2022-10-04T02:45:07.269Z,13.30
2022-10-04T02:47:43.359Z,13.30
2022-10-04T02:50:20.054Z,13.30
2022-10-04T02:52:51.055Z,13.40
2022-10-04T02:55:23.682Z,13.40
2022-10-04T02:57:52.551Z,13.40
2022-10-04T03:00:21.904Z,13.50
2022-10-04T03:03:11.557Z,13.50
2022-10-04T03:05:40.240Z,14.50
2022-10-04T03:08:07.702Z,13.50
2022-10-04T03:10:35.946Z,13.50
2022-10-04T03:13:04.014Z,13.50
2022-10-04T03:15:31.563Z,13.50
2022-10-04T03:17:59.720Z,13.60
2022-10-04T03:20:27.412Z,13.60
2022-10-04T03:22:55.692Z,13.60
2022-10-04T03:25:28.948Z,13.60
2022-10-04T03:27:59.584Z,13.60
2022-10-04T03:30:27.214Z,13.60
2022-10-04T03:32:54.613Z,13.70
2022-10-04T03:35:36.711Z,13.70
2022-10-04T03:38:09.031Z,13.70
2022-10-04T03:40:37.869Z,13.70
2022-10-04T03:43:05.659Z,13.70
2022-10-04T03:45:35.183Z,13.70
2022-10-04T03:48:07.781Z,13.70
2022-10-04T03:50:38.306Z,13.80
2022-10-04T03:53:18.930Z,13.70
2022-10-04T03:55:46.340Z,13.70
2022-10-04T03:58:17.079Z,13.70
2022-10-04T04:00:52.364Z,13.70
2022-10-04T04:03:20.438Z,13.70
2022-10-04T04:05:59.889Z,13.70
2022-10-04T04:08:30.017Z,13.70
2022-10-04T04:10:59.411Z,13.60
2022-10-04T04:13:45.479Z,13.60
2022-10-04T04:16:13.016Z,13.60
2022-10-04T04:18:43.277Z,13.70
2022-10-04T04:21:13.399Z,13.60
2022-10-04T04:23:42.634Z,13.70
2022-10-04T04:26:24.955Z,13.70
2022-10-04T04:28:55.667Z,13.70
2022-10-04T04:31:25.438Z,13.70
2022-10-04T04:34:00.718Z,13.70
2022-10-04T04:36:29.468Z,13.70
2022-10-04T04:39:34.011Z,13.70
2022-10-04T04:42:10.664Z,13.70
2022-10-04T04:44:40.088Z,13.70
2022-10-04T04:47:10.288Z,13.70
2022-10-04T04:49:39.924Z,13.60
2022-10-04T04:52:13.806Z,13.60
2022-10-04T04:54:41.276Z,13.60
2022-10-04T04:57:08.717Z,13.60
2022-10-04T04:59:37.182Z,13.60
2022-10-04T05:02:04.705Z,13.60
2022-10-04T05:04:32.203Z,13.60
2022-10-04T05:07:01.330Z,13.50
2022-10-04T05:09:33.734Z,13.50
2022-10-04T05:12:21.586Z,13.50
2022-10-04T05:14:50.697Z,13.50
2022-10-04T05:17:24.060Z,13.50
2022-10-04T05:19:52.746Z,13.50
2022-10-04T05:22:22.693Z,13.50
2022-10-04T05:24:52.978Z,13.50
2022-10-04T05:27:27.333Z,13.50
2022-10-04T05:30:09.247Z,13.50
2022-10-04T05:32:48.290Z,13.50
2022-10-04T05:35:20.266Z,13.50
2022-10-04T05:37:50.936Z,13.50
2022-10-04T05:40:29.915Z,13.50
2022-10-04T05:42:59.587Z,13.50
2022-10-04T05:45:28.298Z,13.50
2022-10-04T05:47:57.295Z,13.50
2022-10-04T05:50:35.851Z,13.50
2022-10-04T05:53:22.796Z,13.60
2022-10-04T05:55:58.301Z,13.60
2022-10-04T05:58:49.895Z,13.60
2022-10-04T06:01:37.641Z,13.60
2022-10-04T06:04:20.477Z,13.60
2022-10-04T06:06:50.941Z,13.60
2022-10-04T06:09:33.274Z,13.60
2022-10-04T06:12:13.565Z,13.60
2022-10-04T06:14:54.950Z,13.70
2022-10-04T06:17:40.903Z,13.70
2022-10-04T06:20:20.497Z,13.70
2022-10-04T06:22:48.773Z,13.70
2022-10-04T06:25:42.447Z,13.70
2022-10-04T06:28:25.271Z,13.70
2022-10-04T06:31:11.591Z,13.70
2022-10-04T06:33:48.647Z,13.70
2022-10-04T06:36:16.019Z,13.70
2022-10-04T06:38:47.127Z,13.70
2022-10-04T06:41:14.502Z,13.70
2022-10-04T06:43:44.819Z,13.70
2022-10-04T06:46:27.149Z,13.70
2022-10-04T06:49:03.795Z,13.70
2022-10-04T06:51:31.140Z,13.60
2022-10-04T06:53:58.414Z,13.60
2022-10-04T06:56:38.128Z,13.60
2022-10-04T06:59:08.579Z,13.50
2022-10-04T07:01:47.478Z,13.50
2022-10-04T07:04:21.836Z,13.50
2022-10-04T07:07:23.552Z,13.50
2022-10-04T07:10:02.386Z,13.50
2022-10-04T07:12:32.702Z,13.60
2022-10-04T07:15:02.972Z,13.60
2022-10-04T07:17:32.865Z,13.60
2022-10-04T07:20:01.386Z,13.70
2022-10-04T07:22:28.698Z,13.70
2022-10-04T07:25:05.868Z,13.80
2022-10-04T07:27:43.481Z,13.80
2022-10-04T07:30:19.147Z,13.90
2022-10-04T07:32:48.167Z,13.90
2022-10-04T07:35:31.310Z,13.90
2022-10-04T07:38:16.187Z,14.00
2022-10-04T07:40:58.872Z,14.00
2022-10-04T07:43:33.530Z,14.00
2022-10-04T07:46:14.311Z,14.00
2022-10-04T07:48:42.029Z,14.00
2022-10-04T07:51:20.731Z,14.10
2022-10-04T07:54:01.691Z,14.10
2022-10-04T07:56:39.093Z,14.10
2022-10-04T07:59:25.270Z,14.10
2022-10-04T08:02:03.679Z,14.10
2022-10-04T08:04:45.970Z,14.20
2022-10-04T08:07:19.470Z,14.20
2022-10-04T08:09:49.742Z,14.20
2022-10-04T08:12:28.340Z,14.30
2022-10-04T08:15:13.944Z,14.40
2022-10-04T08:17:41.867Z,14.50
2022-10-04T08:20:26.509Z,14.50
2022-10-04T08:22:56.785Z,14.60
2022-10-04T08:25:43.560Z,14.60
2022-10-04T08:28:29.282Z,14.70
2022-10-04T08:31:06.468Z,14.80
2022-10-04T08:33:46.190Z,14.80
2022-10-04T08:36:32.169Z,14.90
2022-10-04T08:39:00.267Z,15.00
2022-10-04T08:41:46.628Z,15.00
2022-10-04T08:44:14.037Z,15.00
2022-10-04T08:46:44.624Z,15.00
2022-10-04T08:49:35.404Z,15.00
2022-10-04T08:52:11.627Z,15.00
2022-10-04T08:55:05.594Z,15.00
2022-10-04T08:57:45.355Z,15.00
2022-10-04T09:00:16.674Z,15.00
2022-10-04T09:02:53.994Z,15.00
2022-10-04T09:05:39.837Z,15.00
2022-10-04T09:08:07.345Z,15.00
2022-10-04T09:10:36.623Z,15.00
2022-10-04T09:13:22.645Z,15.00
2022-10-04T09:15:54.462Z,15.00
2022-10-04T09:18:22.494Z,15.00
2022-10-04T09:21:08.363Z,15.00
2022-10-04T09:23:37.438Z,15.10
2022-10-04T09:26:20.169Z,15.10
2022-10-04T09:28:50.804Z,15.20
2022-10-04T09:31:37.439Z,15.20
2022-10-04T09:34:22.228Z,15.20
2022-10-04T09:37:22.050Z,15.20
2022-10-04T09:40:04.240Z,15.10
2022-10-04T09:42:31.725Z,15.10
2022-10-04T09:45:20.357Z,15.00
2022-10-04T09:48:07.896Z,15.10
2022-10-04T09:50:41.185Z,15.10
2022-10-04T09:53:14.549Z,15.10
2022-10-04T09:55:42.227Z,15.10
2022-10-04T09:58:18.748Z,15.20
2022-10-04T10:00:51.768Z,15.20
2022-10-04T10:03:37.945Z,15.20
2022-10-04T10:06:14.185Z,15.20
2022-10-04T10:09:00.802Z,15.20
2022-10-04T10:12:05.511Z,15.20
2022-10-04T10:14:35.951Z,15.20
2022-10-04T10:17:10.945Z,15.20
2022-10-04T10:19:53.085Z,15.20
2022-10-04T10:22:31.317Z,15.20
2022-10-04T10:25:05.980Z,15.30
2022-10-04T10:27:33.383Z,15.30
2022-10-04T10:30:00.671Z,15.30
2022-10-04T10:32:36.547Z,15.40
2022-10-04T10:35:10.627Z,15.40
2022-10-04T10:37:41.024Z,15.40
2022-10-04T10:40:14.645Z,15.50
2022-10-04T10:42:58.985Z,15.60
2022-10-04T10:45:38.805Z,15.60
2022-10-04T10:48:10.736Z,15.70
2022-10-04T10:51:00.305Z,15.90
2022-10-04T10:53:36.702Z,15.80
2022-10-04T10:56:08.609Z,15.90
2022-10-04T10:58:54.578Z,16.00
2022-10-04T11:01:47.295Z,16.00
2022-10-04T11:04:38.987Z,16.10
2022-10-04T11:07:26.552Z,16.10
2022-10-04T11:10:06.730Z,16.10
2022-10-04T11:12:40.366Z,16.10
2022-10-04T11:15:26.972Z,16.10
2022-10-04T11:18:13.057Z,16.20
2022-10-04T11:20:49.197Z,16.20
2022-10-04T11:23:35.732Z,16.20
2022-10-04T11:26:15.637Z,16.20
2022-10-04T11:28:49.105Z,16.20
2022-10-04T11:31:32.381Z,16.10
2022-10-04T11:34:03.038Z,16.10
2022-10-04T11:36:57.080Z,16.10
2022-10-04T11:39:24.505Z,16.10
2022-10-04T11:42:01.038Z,16.20
2022-10-04T11:44:41.225Z,16.20
2022-10-04T11:47:28.963Z,16.20
2022-10-04T11:49:56.650Z,16.30
2022-10-04T11:52:30.055Z,16.30
2022-10-04T11:55:20.482Z,16.30
2022-10-04T11:58:02.864Z,16.40
2022-10-04T12:01:02.493Z,16.50
2022-10-04T12:03:32.688Z,16.50
2022-10-04T12:06:18.515Z,16.60
2022-10-04T12:08:53.978Z,16.60
2022-10-04T12:11:21.330Z,16.70
2022-10-04T12:13:50.676Z,16.80
2022-10-04T12:16:33.730Z,16.80
2022-10-04T12:19:15.515Z,16.90
2022-10-04T12:21:50.551Z,16.90
2022-10-04T12:24:33.206Z,16.90
2022-10-04T12:27:01.180Z,16.90
2022-10-04T12:29:42.178Z,16.90
2022-10-04T12:32:16.412Z,16.90
2022-10-04T12:34:46.851Z,16.90
2022-10-04T12:37:23.451Z,16.90
2022-10-04T12:40:02.678Z,16.90
2022-10-04T12:42:33.333Z,17.00
2022-10-04T12:45:20.116Z,17.10
2022-10-04T12:48:03.115Z,17.10
2022-10-04T12:50:35.410Z,17.20
2022-10-04T12:53:14.844Z,17.20
2022-10-04T12:56:02.517Z,17.20
2022-10-04T12:58:43.356Z,17.20
2022-10-04T13:01:15.289Z,17.30
2022-10-04T13:04:02.942Z,17.30
2022-10-04T13:06:49.024Z,17.30
2022-10-04T13:09:19.879Z,17.40
2022-10-04T13:12:01.994Z,17.40
2022-10-04T13:14:49.224Z,17.40
2022-10-04T13:17:28.037Z,17.30
2022-10-04T13:20:02.925Z,17.30
2022-10-04T13:22:55.972Z,17.30
2022-10-04T13:25:36.600Z,17.20
2022-10-04T13:28:05.662Z,17.20
2022-10-04T13:30:38.465Z,17.20
2022-10-04T13:33:24.690Z,17.20
2022-10-04T13:35:52.062Z,17.20
2022-10-04T13:38:19.465Z,17.10
2022-10-04T13:40:55.671Z,17.00
2022-10-04T13:43:29.191Z,17.10
2022-10-04T13:46:12.573Z,17.00
2022-10-04T13:48:53.502Z,17.00
2022-10-04T13:51:26.693Z,16.90
2022-10-04T13:54:21.946Z,16.90
2022-10-04T13:56:52.204Z,16.90
2022-10-04T13:59:33.820Z,16.90
2022-10-04T14:02:21.437Z,16.90
2022-10-04T14:04:51.525Z,16.80
2022-10-04T14:07:37.490Z,16.80
2022-10-04T14:10:34.692Z,16.80
2022-10-04T14:13:24.788Z,16.80
2022-10-04T14:16:01.605Z,16.80
2022-10-04T14:18:44.324Z,16.80
2022-10-04T14:21:19.644Z,16.80
2022-10-04T14:24:02.905Z,16.80
2022-10-04T14:26:46.536Z,16.80
2022-10-04T14:29:28.662Z,16.80
2022-10-04T14:32:20.542Z,16.80
2022-10-04T14:34:55.261Z,16.80
2022-10-04T14:37:37.547Z,16.80
2022-10-04T14:40:23.497Z,16.90
2022-10-04T14:43:09.430Z,16.80
2022-10-04T14:45:55.429Z,16.70
2022-10-04T14:48:41.275Z,16.60
2022-10-04T14:51:15.553Z,16.50
2022-10-04T14:54:06.394Z,16.40
2022-10-04T14:56:39.957Z,16.30
2022-10-04T14:59:10.347Z,16.20
2022-10-04T15:01:39.076Z,16.20
2022-10-04T15:04:11.975Z,16.20
2022-10-04T15:06:40.208Z,16.10
2022-10-04T15:09:07.581Z,16.10
2022-10-04T15:11:44.388Z,16.10
2022-10-04T15:14:34.233Z,16.10
2022-10-04T15:17:03.573Z,16.10
2022-10-04T15:19:49.792Z,16.00
2022-10-04T15:22:37.665Z,16.00
2022-10-04T15:25:24.977Z,16.00
2022-10-04T15:27:55.569Z,16.00
2022-10-04T15:30:25.065Z,16.00
2022-10-04T15:33:09.270Z,16.00
2022-10-04T15:36:06.953Z,15.90
2022-10-04T15:38:57.132Z,15.90
2022-10-04T15:41:36.695Z,15.90
2022-10-04T15:44:15.138Z,15.90
2022-10-04T15:46:42.995Z,15.90
2022-10-04T15:49:16.983Z,15.90
2022-10-04T15:52:07.669Z,15.90
2022-10-04T15:54:41.242Z,15.90
2022-10-04T15:57:32.318Z,15.90
2022-10-04T16:00:05.299Z,15.80
2022-10-04T16:02:35.754Z,15.80
2022-10-04T16:05:17.257Z,15.90
2022-10-04T16:07:59.922Z,15.90
2022-10-04T16:10:31.183Z,15.80
2022-10-04T16:13:34.297Z,15.80
2022-10-04T16:16:26.305Z,15.90
2022-10-04T16:18:53.759Z,15.90
2022-10-04T16:21:42.158Z,15.90
2022-10-04T16:24:18.585Z,15.90
2022-10-04T16:26:47.517Z,15.90
2022-10-04T16:29:16.025Z,15.90
2022-10-04T16:31:48.975Z,15.90
2022-10-04T16:34:16.275Z,15.90
2022-10-04T16:37:02.241Z,16.00
2022-10-04T16:39:54.179Z,16.00
2022-10-04T16:42:24.653Z,16.00
2022-10-04T16:44:59.391Z,16.00
2022-10-04T16:47:32.432Z,16.10
2022-10-04T16:50:01.676Z,16.10
2022-10-04T16:52:38.478Z,16.10
2022-10-04T16:55:11.854Z,16.10
2022-10-04T16:57:43.472Z,16.10
2022-10-04T17:00:31.446Z,16.10
2022-10-04T17:03:19.848Z,16.10
2022-10-04T17:06:06.133Z,16.00
2022-10-04T17:08:45.928Z,16.00
2022-10-04T17:11:14.705Z,16.00
2022-10-04T17:13:50.846Z,16.00
2022-10-04T17:16:31.234Z,16.00
2022-10-04T17:19:26.004Z,16.00
2022-10-04T17:21:53.978Z,16.00
2022-10-04T17:24:21.448Z,16.00
2022-10-04T17:27:05.577Z,16.00
2022-10-04T17:29:48.931Z,16.00
2022-10-04T17:32:24.748Z,16.00
2022-10-04T17:34:52.302Z,16.00
2022-10-04T17:37:35.175Z,16.10
2022-10-04T17:40:12.021Z,16.10
2022-10-04T17:42:57.777Z,16.00
2022-10-04T17:45:35.064Z,16.00
2022-10-04T17:48:26.475Z,16.10
2022-10-04T17:51:19.855Z,16.00
2022-10-04T17:54:10.125Z,16.00
2022-10-04T17:56:50.599Z,16.00
2022-10-04T17:59:20.820Z,16.00
2022-10-04T18:01:52.121Z,16.00
2022-10-04T18:04:23.600Z,16.00
2022-10-04T18:06:57.217Z,16.00
2022-10-04T18:09:29.880Z,16.00
2022-10-04T18:12:01.388Z,16.00
2022-10-04T18:14:46.027Z,16.00
2022-10-04T18:17:21.535Z,16.00
2022-10-04T18:19:51.840Z,16.00
2022-10-04T18:22:20.152Z,16.00
2022-10-04T18:24:49.103Z,16.10
2022-10-04T18:27:18.819Z,16.00
2022-10-04T18:30:00.377Z,16.10
2022-10-04T18:32:27.870Z,16.00
2022-10-04T18:34:56.315Z,16.00
2022-10-04T18:37:34.380Z,16.00
2022-10-04T18:40:15.010Z,17.20
2022-10-04T18:42:47.930Z,15.90
2022-10-04T18:45:23.813Z,15.90
2022-10-04T18:47:52.230Z,15.90
2022-10-04T18:50:19.736Z,15.80
2022-10-04T18:52:47.254Z,15.80
2022-10-04T18:55:25.507Z,15.80
2022-10-04T18:58:32.164Z,15.70
2022-10-04T19:01:33.400Z,15.70
2022-10-04T19:04:05.067Z,15.70
2022-10-04T19:06:33.724Z,15.70
2022-10-04T19:09:08.003Z,15.70
2022-10-04T19:11:43.988Z,15.70
2022-10-04T19:14:16.694Z,15.70
2022-10-04T19:16:56.417Z,15.70
2022-10-04T19:19:32.629Z,15.70
2022-10-04T19:22:15.337Z,15.70
2022-10-04T19:24:55.196Z,15.60
2022-10-04T19:27:38.735Z,15.60
2022-10-04T19:30:20.177Z,15.60
2022-10-04T19:32:52.661Z,15.50
2022-10-04T19:35:31.340Z,15.50
2022-10-04T19:38:01.664Z,15.50
2022-10-04T19:40:36.613Z,15.50
2022-10-04T19:43:23.128Z,15.50
2022-10-04T19:46:03.358Z,15.40
2022-10-04T19:48:36.590Z,15.40
2022-10-04T19:51:08.510Z,15.40
2022-10-04T19:53:40.898Z,15.30
2022-10-04T19:56:19.276Z,15.30
2022-10-04T19:59:12.744Z,15.30
2022-10-04T20:01:40.109Z,15.30
2022-10-04T20:04:29.737Z,15.30
2022-10-04T20:06:57.900Z,15.30
2022-10-04T20:09:31.375Z,15.20
2022-10-04T20:11:59.329Z,15.20
2022-10-04T20:14:26.911Z,15.20
2022-10-04T20:16:54.364Z,15.30
2022-10-04T20:19:36.867Z,15.20
2022-10-04T20:22:07.269Z,15.30
2022-10-04T20:24:37.393Z,15.20
2022-10-04T20:27:28.369Z,15.20
2022-10-04T20:30:04.366Z,15.20
2022-10-04T20:32:37.094Z,15.20
2022-10-04T20:35:11.272Z,15.20
2022-10-04T20:37:44.666Z,15.20
2022-10-04T20:40:21.159Z,15.20
2022-10-04T20:43:10.979Z,15.20
2022-10-04T20:45:46.049Z,15.20
2022-10-04T20:48:26.729Z,15.20
2022-10-04T20:50:54.810Z,15.20
2022-10-04T20:53:23.674Z,15.20
2022-10-04T20:55:53.841Z,15.20
2022-10-04T20:58:35.446Z,15.20
2022-10-04T21:01:13.935Z,15.30
2022-10-04T21:03:41.455Z,15.30
2022-10-04T21:06:09.839Z,15.20
2022-10-04T21:08:37.809Z,15.20
2022-10-04T21:11:09.474Z,15.20
2022-10-04T21:13:47.062Z,15.20
2022-10-04T21:16:32.981Z,15.20
2022-10-04T21:19:19.083Z,15.20
2022-10-04T21:21:50.066Z,15.20
2022-10-04T21:24:36.409Z,15.20
2022-10-04T21:27:05.274Z,15.20
2022-10-04T21:29:32.617Z,15.20
2022-10-04T21:32:00.313Z,15.20
2022-10-04T21:34:52.107Z,15.30
2022-10-04T21:37:15.705Z,15.30
2022-10-04T21:39:46.157Z,15.30
2022-10-04T21:42:16.735Z,15.30
2022-10-04T21:44:44.091Z,15.30
2022-10-04T21:53:38.739Z,15.40
2022-10-04T21:56:07.656Z,15.40
2022-10-04T21:58:35.220Z,15.40
2022-10-04T22:01:02.613Z,15.40
2022-10-04T22:03:30.061Z,15.40
2022-10-04T22:05:57.556Z,15.40
2022-10-04T22:08:25.115Z,15.40
2022-10-04T22:10:57.430Z,15.40
2022-10-04T22:13:26.810Z,15.40
2022-10-04T22:15:55.243Z,15.50
2022-10-04T22:18:22.632Z,15.50
2022-10-04T22:20:50.125Z,15.50
2022-10-04T22:23:22.412Z,15.40
2022-10-04T22:25:49.943Z,15.50
2022-10-04T22:28:24.957Z,15.50
2022-10-04T22:30:54.133Z,15.50
2022-10-04T22:33:28.915Z,15.50
2022-10-04T22:36:16.331Z,15.50
2022-10-04T22:38:52.103Z,15.50
2022-10-04T22:41:19.705Z,15.50
2022-10-04T22:43:48.977Z,15.50
2022-10-04T22:46:18.429Z,15.50
2022-10-04T22:48:47.104Z,15.50
2022-10-04T22:51:14.677Z,15.40
2022-10-04T22:53:43.413Z,15.50
2022-10-04T22:56:12.257Z,15.40
2022-10-04T22:58:39.926Z,15.40
2022-10-04T23:01:14.709Z,15.30
2022-10-04T23:03:45.812Z,15.30
2022-10-04T23:06:14.394Z,15.30
2022-10-04T23:08:41.926Z,15.20
2022-10-04T23:11:10.197Z,15.20
2022-10-04T23:13:37.997Z,15.20
2022-10-04T23:16:14.196Z,15.10
2022-10-04T23:18:41.757Z,15.10
2022-10-04T23:21:19.639Z,15.10
2022-10-04T23:23:47.857Z,15.10
2022-10-04T23:26:20.056Z,15.10
2022-10-04T23:28:47.492Z,15.10
2022-10-04T23:31:21.850Z,15.00
2022-10-04T23:33:50.335Z,15.00
2022-10-04T23:36:18.436Z,15.10
2022-10-04T23:38:49.709Z,15.10
2022-10-04T23:41:18.850Z,15.10
2022-10-04T23:43:46.861Z,15.10
2022-10-04T23:46:19.815Z,15.10
2022-10-04T23:48:47.829Z,15.10
2022-10-04T23:51:17.151Z,15.10
2022-10-04T23:53:45.220Z,15.10
2022-10-04T23:56:22.636Z,15.10
2022-10-04T23:58:51.170Z,15.10
